Time;durP1;ratioP1;P1;durP2;ratioP2;P2;SDS_P1;SDS_P2;PMS_P1;PMS_P2;Temp;Humidity;BMP_temperature;BMP_pressure;BME280_temperature;BME280_humidity;BME280_pressure;Samples;Min_cycle;Max_cycle;Signal;HPM_P1;HPM_P2
2022/08/03 00:00:25;;;;;;;11.95;3.03;;;;;;;19.78;39.90;101077.63;4993581;28;20081;-68
2022/08/03 00:02:52;;;;;;;7.78;3.13;;;;;;;20.02;39.57;101078.81;4993391;28;20046;-67
2022/08/03 00:05:19;;;;;;;13.32;3.20;;;;;;;20.02;39.66;101076.09;4992214;28;20054;-67
2022/08/03 00:07:45;;;;;;;7.18;3.15;;;;;;;19.61;40.24;101064.44;4993928;28;20065;-68
2022/08/03 00:10:14;;;;;;;7.15;3.20;;;;;;;19.58;40.61;101070.28;4982651;28;20059;-67
2022/08/03 00:12:41;;;;;;;6.80;2.78;;;;;;;19.76;40.21;101072.38;4993056;28;20062;-67
2022/08/03 00:15:08;;;;;;;12.10;3.40;;;;;;;19.55;40.62;101072.59;4993156;28;20542;-68
2022/08/03 00:17:41;;;;;;;10.80;2.83;;;;;;;19.70;40.32;101068.66;4991844;28;20042;-69
2022/08/03 00:20:22;;;;;;;6.20;3.05;;;;;;;20.04;39.86;101071.25;4992614;28;20100;-68
2022/08/03 00:22:50;;;;;;;7.22;2.88;;;;;;;20.19;39.33;101063.69;4986785;28;20104;-69
2022/08/03 00:25:17;;;;;;;9.32;2.72;;;;;;;20.24;39.23;101069.31;4993427;28;20058;-69
2022/08/03 00:27:44;;;;;;;8.18;2.80;;;;;;;20.20;39.23;101065.34;4992112;28;20142;-69
2022/08/03 00:30:13;;;;;;;8.27;3.42;;;;;;;20.24;39.47;101063.84;4992464;28;20050;-67
2022/08/03 00:32:42;;;;;;;7.03;2.90;;;;;;;20.22;39.43;101062.41;4992895;28;20065;-67
2022/08/03 00:35:11;;;;;;;10.60;2.95;;;;;;;20.20;39.36;101062.63;4992232;28;20046;-68
2022/08/03 00:37:57;;;;;;;8.02;3.10;;;;;;;20.16;39.39;101055.94;4991373;28;25082;-68
2022/08/03 00:40:24;;;;;;;10.02;3.20;;;;;;;20.15;39.39;101051.56;4992907;28;20505;-68
2022/08/03 00:42:56;;;;;;;8.25;2.58;;;;;;;20.13;39.26;101050.91;4992875;28;20561;-67
2022/08/03 00:45:28;;;;;;;8.25;3.00;;;;;;;20.04;39.33;101049.47;4992623;28;20129;-68
2022/08/03 00:47:55;;;;;;;5.82;2.80;;;;;;;20.00;39.32;101050.97;4992020;28;20077;-67
2022/08/03 00:50:24;;;;;;;7.68;3.03;;;;;;;19.89;39.64;101055.19;4991536;28;20070;-68
2022/08/03 00:52:53;;;;;;;7.35;3.25;;;;;;;19.92;39.74;101044.69;4992205;28;20069;-67
2022/08/03 00:55:20;;;;;;;15.80;2.72;;;;;;;19.79;39.94;101044.72;4992404;28;20081;-68
2022/08/03 00:57:47;;;;;;;7.93;2.70;;;;;;;19.93;39.72;101040.09;4992025;28;20614;-69
2022/08/03 01:00:19;;;;;;;9.10;2.78;;;;;;;19.94;39.63;101041.78;4992438;28;20077;-68
2022/08/03 01:02:48;;;;;;;9.10;2.70;;;;;;;19.79;39.81;101039.28;4990590;28;20046;-68
2022/08/03 01:09:08;;;;;;;12.65;2.70;;;;;;;19.65;40.15;101038.44;4993175;28;20041;-68
2022/08/03 01:12:02;;;;;;;8.32;2.88;;;;;;;19.60;40.33;101045.59;4990451;28;20125;-69
2022/08/03 01:14:48;;;;;;;7.82;2.60;;;;;;;19.64;39.94;101036.78;4957715;28;20212;-69
2022/08/03 01:17:24;;;;;;;10.18;2.25;;;;;;;19.37;40.54;101036.00;4991773;28;20133;-69
2022/08/03 01:20:01;;;;;;;4.47;2.45;;;;;;;19.56;40.27;101045.19;4991684;28;20074;-68
2022/08/03 01:22:56;;;;;;;6.57;2.40;;;;;;;19.58;40.30;101043.06;4990409;28;20054;-68
2022/08/03 01:25:44;;;;;;;12.07;2.70;;;;;;;19.66;40.30;101039.31;4961563;28;20074;-69
2022/08/03 01:28:42;;;;;;;7.57;2.42;;;;;;;19.54;40.43;101035.56;4992526;28;20069;-69
2022/08/03 01:31:12;;;;;;;5.72;2.63;;;;;;;19.62;40.20;101027.16;4973632;28;20061;-69
2022/08/03 01:33:42;;;;;;;10.02;2.78;;;;;;;19.65;40.21;101032.19;4992614;28;20141;-69
2022/08/03 01:36:13;;;;;;;6.18;2.75;;;;;;;19.36;40.83;101022.63;4991845;28;20049;-68
2022/08/03 01:38:57;;;;;;;8.85;2.78;;;;;;;19.52;40.58;101018.59;4991836;28;20046;-69
2022/08/03 01:41:30;;;;;;;8.48;2.78;;;;;;;19.64;40.36;101019.63;4990022;28;20486;-68
2022/08/03 01:44:00;;;;;;;6.93;2.75;;;;;;;19.43;40.82;101018.81;4992695;28;20657;-69
2022/08/03 01:46:50;;;;;;;9.93;2.65;;;;;;;19.43;40.73;101018.81;4982869;28;20359;-68
2022/08/03 01:49:17;;;;;;;7.03;2.65;;;;;;;19.40;40.69;101016.53;4991567;28;20485;-69
2022/08/03 01:51:46;;;;;;;9.13;3.00;;;;;;;19.27;41.21;101020.09;4991442;28;20062;-69
2022/08/03 01:54:33;;;;;;;7.95;2.75;;;;;;;19.26;41.09;101015.72;4991239;28;20050;-68
2022/08/03 01:57:02;;;;;;;6.75;2.80;;;;;;;19.30;40.94;101018.84;4991425;28;20478;-68
2022/08/03 01:59:30;;;;;;;11.43;2.88;;;;;;;19.49;40.64;101019.88;4991776;28;20074;-68
2022/08/03 02:01:59;;;;;;;10.65;2.72;;;;;;;19.44;40.45;101019.66;4991990;28;20046;-68
2022/08/03 02:04:47;;;;;;;3.95;2.28;;;;;;;19.38;40.67;101012.34;4990897;28;20505;-68
2022/08/03 02:07:15;;;;;;;5.90;2.65;;;;;;;19.49;40.31;101017.16;4991337;28;20141;-68
2022/08/03 02:09:45;;;;;;;6.97;2.72;;;;;;;19.42;40.32;101021.78;4991021;28;20128;-68
2022/08/03 02:12:13;;;;;;;6.78;2.80;;;;;;;19.26;40.39;101014.88;4981971;28;20065;-68
2022/08/03 02:14:43;;;;;;;6.93;2.67;;;;;;;19.12;40.33;101022.19;4990424;28;20042;-69
2022/08/03 02:17:11;;;;;;;7.50;2.83;;;;;;;19.11;40.58;101017.00;4991536;28;20402;-69
2022/08/03 02:19:39;;;;;;;8.57;2.80;;;;;;;19.23;40.23;101016.13;4990694;28;20466;-68
2022/08/03 02:22:09;;;;;;;5.97;2.33;;;;;;;19.17;40.62;101007.97;4991501;28;20046;-68
2022/08/03 02:24:37;;;;;;;4.97;2.30;;;;;;;19.02;40.54;101024.50;4991424;28;20125;-69
2022/08/03 02:27:12;;;;;;;9.45;2.67;;;;;;;19.27;39.98;101011.09;4991239;28;20057;-68
2022/08/03 02:29:40;;;;;;;7.70;2.42;;;;;;;19.13;40.22;101014.88;4993635;28;20073;-68
2022/08/03 02:32:13;;;;;;;11.70;2.50;;;;;;;19.04;40.29;101019.72;4994469;28;20061;-68
2022/08/03 02:34:43;;;;;;;8.52;2.45;;;;;;;18.90;40.40;101018.84;4994373;28;20042;-68
2022/08/03 02:37:12;;;;;;;9.73;2.67;;;;;;;19.08;40.10;101020.13;4995275;28;20125;-68
2022/08/03 02:39:40;;;;;;;7.63;2.50;;;;;;;19.13;40.00;101023.03;4994577;28;20126;-68
2022/08/03 02:42:09;;;;;;;3.45;2.17;;;;;;;18.81;40.44;101014.63;4995065;28;20101;-68
2022/08/03 02:44:40;;;;;;;5.43;2.30;;;;;;;18.74;40.92;101019.22;4994974;28;20474;-68
2022/08/03 02:47:09;;;;;;;7.72;2.85;;;;;;;19.09;40.36;101013.63;4995442;28;20121;-68
2022/08/03 02:49:38;;;;;;;5.88;2.72;;;;;;;18.94;40.87;101020.13;4994518;28;20554;-69
2022/08/03 02:52:20;;;;;;;6.47;2.80;;;;;;;19.18;40.26;101020.53;4994374;28;20046;-67
2022/08/03 02:54:49;;;;;;;11.80;2.80;;;;;;;19.00;40.61;101019.28;4993876;28;20046;-69
2022/08/03 02:57:18;;;;;;;6.82;2.90;;;;;;;18.75;41.45;101024.44;4995011;28;20068;-68
2022/08/03 02:59:46;;;;;;;5.95;2.85;;;;;;;19.29;40.35;101021.78;4995128;28;20049;-69
2022/08/03 03:02:15;;;;;;;7.13;3.30;;;;;;;19.28;40.19;101023.69;4995409;28;20120;-68
2022/08/03 03:04:43;;;;;;;8.68;2.83;;;;;;;19.48;39.73;101021.78;4993375;28;20048;-69
2022/08/03 03:07:31;;;;;;;6.68;3.22;;;;;;;19.54;39.76;101024.69;4993432;28;20050;-69
2022/08/03 03:10:20;;;;;;;5.32;2.75;;;;;;;19.60;39.72;101024.66;4994370;28;20054;-69
2022/08/03 03:12:48;;;;;;;5.72;2.90;;;;;;;19.61;39.67;101026.31;4994247;28;20092;-69
2022/08/03 03:15:15;;;;;;;8.32;2.88;;;;;;;19.56;39.71;101026.13;4994558;28;20463;-68
2022/08/03 03:17:43;;;;;;;8.18;2.83;;;;;;;19.58;39.92;101020.47;4993058;28;20073;-68
2022/08/03 03:20:10;;;;;;;12.85;3.17;;;;;;;19.65;39.79;101021.28;4993756;28;20501;-68
2022/08/03 03:22:38;;;;;;;8.23;3.63;;;;;;;19.62;39.95;101024.44;4994277;28;20076;-69
2022/08/03 03:25:06;;;;;;;7.88;3.25;;;;;;;19.63;39.93;101021.53;4993008;28;20478;-69
2022/08/03 03:27:33;;;;;;;9.38;2.90;;;;;;;19.60;40.01;101019.22;4994120;28;20058;-71
2022/08/03 03:30:01;;;;;;;7.82;3.80;;;;;;;19.63;39.96;101024.25;4994057;28;20050;-68
2022/08/03 03:32:28;;;;;;;7.25;2.83;;;;;;;19.63;39.88;101017.97;4994771;28;20133;-68
2022/08/03 03:34:57;;;;;;;8.82;3.28;;;;;;;19.60;40.16;101021.94;4994390;28;20073;-69
2022/08/03 03:37:25;;;;;;;6.28;3.10;;;;;;;19.64;40.21;101016.91;4993661;28;20506;-68
2022/08/03 03:39:53;;;;;;;7.85;3.20;;;;;;;19.62;40.20;101025.31;4992730;28;20070;-68
2022/08/03 03:42:20;;;;;;;9.93;3.45;;;;;;;19.60;40.36;101024.66;4992130;28;20069;-68
2022/08/03 03:44:47;;;;;;;7.20;3.90;;;;;;;19.62;40.26;101022.56;4993727;28;20125;-68
2022/08/03 03:47:14;;;;;;;7.88;3.30;;;;;;;19.55;40.32;101023.63;4994404;28;20141;-68
2022/08/03 03:49:42;;;;;;;9.13;2.97;;;;;;;19.65;40.64;101022.13;4993782;28;20062;-68
2022/08/03 03:52:09;;;;;;;5.65;3.10;;;;;;;19.54;40.34;101024.69;4993417;28;20042;-67
2022/08/03 03:54:43;;;;;;;11.73;3.78;;;;;;;19.63;40.04;101024.25;4976561;28;20073;-67
2022/08/03 03:57:11;;;;;;;12.30;3.40;;;;;;;19.60;39.81;101021.09;4992975;28;20166;-67
2022/08/03 03:59:42;;;;;;;7.93;3.30;;;;;;;19.66;39.73;101004.75;4992344;28;20129;-66
2022/08/03 04:02:11;;;;;;;8.93;3.45;;;;;;;19.67;39.98;101013.75;4992983;28;20130;-68
2022/08/03 04:13:08;;;;;;;8.90;3.45;;;;;;;19.49;39.92;101011.72;4992523;28;20497;-67
2022/08/03 04:15:37;;;;;;;;;;;;;;;19.29;39.82;101017.19;4992536;28;20137;-67
2022/08/03 04:18:08;;;;;;;8.50;3.22;;;;;;;19.39;39.55;101017.59;4992152;28;20004;-67
2022/08/03 04:20:37;;;;;;;8.18;3.40;;;;;;;19.61;39.18;101025.50;4976078;28;20138;-68
2022/08/03 04:23:06;;;;;;;7.57;2.88;;;;;;;19.63;38.86;101017.97;4992668;28;20070;-68
2022/08/03 04:25:42;;;;;;;9.25;3.17;;;;;;;19.67;39.23;101020.06;4992774;28;20050;-68
2022/08/03 04:28:10;;;;;;;7.07;2.78;;;;;;;19.73;38.94;101023.84;4992429;28;20073;-69
2022/08/03 04:30:58;;;;;;;8.02;4.00;;;;;;;19.77;39.02;101025.06;4992019;28;20050;-67
2022/08/03 04:33:26;;;;;;;9.65;3.45;;;;;;;19.88;38.75;101023.56;4992677;28;20043;-68
2022/08/03 04:35:58;;;;;;;13.05;3.83;;;;;;;19.85;38.64;101026.72;4992795;28;20042;-67
2022/08/03 04:38:31;;;;;;;9.88;3.50;;;;;;;19.81;38.59;101036.38;4991568;28;20406;-67
2022/08/03 04:40:58;;;;;;;6.75;2.88;;;;;;;19.85;38.63;101029.44;4974087;28;20054;-67
2022/08/03 04:43:26;;;;;;;14.23;3.55;;;;;;;19.68;39.00;101034.50;4992629;28;20134;-67
2022/08/03 04:45:53;;;;;;;11.32;4.10;;;;;;;19.72;39.29;101035.75;4990969;28;20042;-67
2022/08/03 04:48:20;;;;;;;11.18;4.13;;;;;;;19.73;39.11;101037.44;4992258;28;20069;-67
2022/08/03 04:50:47;;;;;;;9.38;3.88;;;;;;;19.63;39.10;101039.75;4991435;28;20125;-67
2022/08/03 04:53:15;;;;;;;9.02;3.33;;;;;;;19.83;39.25;101029.66;4991455;28;20065;-67
2022/08/03 04:55:41;;;;;;;9.30;3.42;;;;;;;19.54;39.84;101035.56;4992786;28;20077;-67
2022/08/03 04:58:08;;;;;;;12.48;3.50;;;;;;;19.42;39.64;101036.22;4982359;28;20383;-67
2022/08/03 05:00:35;;;;;;;11.68;3.38;;;;;;;19.71;38.93;101037.63;4991111;28;20495;-67
2022/08/03 05:03:01;;;;;;;10.68;3.92;;;;;;;19.77;39.11;101035.13;4991831;28;20046;-67
2022/08/03 05:05:28;;;;;;;7.78;3.47;;;;;;;19.84;38.93;101036.78;4991326;28;20096;-67
2022/08/03 05:08:14;;;;;;;10.27;3.10;;;;;;;20.00;38.50;101035.44;4993071;28;20495;-68
2022/08/03 05:10:41;;;;;;;11.95;3.45;;;;;;;19.83;38.70;101037.84;4991101;28;20138;-67
2022/08/03 05:13:11;;;;;;;13.40;3.30;;;;;;;19.70;38.64;101041.41;4992379;28;20080;-69
2022/08/03 05:15:39;;;;;;;8.13;3.50;;;;;;;20.01;38.56;101042.59;4991546;28;20100;-68
2022/08/03 05:18:09;;;;;;;13.30;3.67;;;;;;;19.65;38.84;101043.91;4990681;28;20104;-69
2022/08/03 05:20:40;;;;;;;14.57;3.45;;;;;;;19.89;38.45;101053.28;4991158;28;20133;-68
2022/08/03 05:23:06;;;;;;;7.35;3.20;;;;;;;19.92;38.29;101052.03;4991503;28;20132;-68
2022/08/03 05:25:33;;;;;;;14.68;3.55;;;;;;;19.92;38.84;101038.41;4991583;28;20561;-69
2022/08/03 05:28:00;;;;;;;8.10;3.33;;;;;;;20.03;38.62;101039.63;4991931;28;20499;-68
2022/08/03 05:30:26;;;;;;;9.48;2.78;;;;;;;20.12;38.37;101041.09;4991131;28;20057;-68
2022/08/03 05:33:00;;;;;;;9.93;2.70;;;;;;;20.14;37.89;101048.00;4990324;28;20055;-68
2022/08/03 05:35:27;;;;;;;18.63;3.08;;;;;;;20.27;37.77;101041.63;4990812;28;20080;-68
2022/08/03 05:38:14;;;;;;;11.95;2.85;;;;;;;20.24;37.45;101047.50;4990967;28;20061;-68
2022/08/03 05:40:55;;;;;;;8.77;2.28;;;;;;;20.14;37.61;101047.13;4988070;28;20057;-68
2022/08/03 05:43:41;;;;;;;11.52;2.58;;;;;;;20.38;37.58;101053.72;4991044;28;20046;-68
2022/08/03 05:46:08;;;;;;;9.70;2.72;;;;;;;20.39;36.94;101047.25;4990805;28;20066;-68
2022/08/03 05:48:38;;;;;;;8.32;2.97;;;;;;;20.53;37.30;101050.78;4991005;28;20133;-68
2022/08/03 05:51:06;;;;;;;9.63;3.05;;;;;;;20.56;37.11;101055.75;4985488;28;20161;-68
2022/08/03 05:53:33;;;;;;;8.70;2.35;;;;;;;20.62;36.45;101057.63;4990404;28;20050;-68
2022/08/03 05:56:00;;;;;;;15.45;3.15;;;;;;;20.65;36.91;101059.91;4991320;28;20056;-68
2022/08/03 05:58:45;;;;;;;7.55;2.30;;;;;;;20.73;36.75;101061.53;4991574;28;20517;-68
2022/08/03 06:01:12;;;;;;;8.60;2.70;;;;;;;20.95;36.67;101056.59;4991425;28;20046;-68
2022/08/03 06:03:39;;;;;;;8.40;2.50;;;;;;;20.86;36.37;101062.28;4990299;28;20498;-69
2022/08/03 06:06:05;;;;;;;13.85;3.30;;;;;;;20.92;36.13;101060.56;4990899;28;20108;-69
2022/08/03 06:08:32;;;;;;;11.60;2.70;;;;;;;21.05;36.36;101062.38;4990606;28;20085;-69
2022/08/03 06:10:59;;;;;;;21.10;2.55;;;;;;;21.01;36.34;101063.84;4990987;28;20149;-69
2022/08/03 06:13:25;;;;;;;8.43;2.40;;;;;;;21.17;36.56;101062.50;4991346;28;20156;-68
2022/08/03 06:15:52;;;;;;;9.18;2.78;;;;;;;21.19;36.17;101061.25;4991211;28;20034;-69
2022/08/03 06:18:19;;;;;;;8.20;2.28;;;;;;;21.20;36.02;101057.44;4992320;28;20066;-69
2022/08/03 06:20:45;;;;;;;5.63;2.35;;;;;;;21.31;36.31;101059.44;4991012;28;20132;-68
2022/08/03 06:23:14;;;;;;;10.23;2.92;;;;;;;21.33;36.35;101060.06;4989210;28;20137;-69
2022/08/03 06:25:41;;;;;;;12.48;2.50;;;;;;;21.61;35.49;101053.28;4990006;28;20050;-68
2022/08/03 06:28:08;;;;;;;9.90;2.50;;;;;;;21.47;35.85;101059.94;4990822;28;20086;-68
2022/08/03 06:30:54;;;;;;;7.30;2.47;;;;;;;21.70;35.85;101060.16;4990902;28;20368;-68
2022/08/03 06:33:20;;;;;;;8.20;2.33;;;;;;;21.71;35.85;101061.81;4990004;28;20459;-68
2022/08/03 06:35:47;;;;;;;9.52;2.50;;;;;;;21.54;35.91;101058.00;4990044;28;20550;-68
2022/08/03 06:38:14;;;;;;;11.50;2.08;;;;;;;21.88;35.71;101061.25;4990624;28;20465;-68
2022/08/03 06:40:40;;;;;;;10.88;2.10;;;;;;;21.93;35.08;101064.13;4989126;28;20070;-68
2022/08/03 06:43:07;;;;;;;13.63;2.42;;;;;;;22.05;34.59;101060.41;4990420;28;20129;-68
2022/08/03 06:45:38;;;;;;;16.83;3.15;;;;;;;22.26;34.86;101058.25;4990260;28;20125;-68
2022/08/03 06:48:06;;;;;;;9.60;2.30;;;;;;;22.42;34.50;101059.50;4990627;28;20153;-68
2022/08/03 06:50:35;;;;;;;13.60;2.40;;;;;;;22.46;34.79;101060.72;4989951;28;20133;-69
2022/08/03 06:53:02;;;;;;;14.43;2.67;;;;;;;22.63;34.24;101056.28;4990657;28;20116;-67
2022/08/03 06:55:29;;;;;;;7.50;2.63;;;;;;;22.88;33.38;101063.50;4990308;28;20054;-68
2022/08/03 06:57:56;;;;;;;6.65;2.30;;;;;;;22.99;32.92;101049.88;4990163;28;20125;-68
2022/08/03 07:00:29;;;;;;;8.38;2.13;;;;;;;22.98;33.51;101058.28;4990557;28;20524;-68
2022/08/03 07:02:56;;;;;;;11.05;2.80;;;;;;;22.89;34.19;101060.56;4989564;28;20054;-69
2022/08/03 07:05:24;;;;;;;9.52;2.10;;;;;;;23.27;33.68;101054.69;4990187;28;20429;-68
2022/08/03 07:07:54;;;;;;;9.38;2.22;;;;;;;23.32;33.55;101051.22;4989925;28;20430;-69
2022/08/03 07:10:21;;;;;;;9.52;2.47;;;;;;;23.97;31.95;101055.75;4990324;28;20073;-68
2022/08/03 07:12:47;;;;;;;11.00;2.63;;;;;;;24.21;31.40;101049.13;4989955;28;20077;-68
2022/08/03 07:15:22;;;;;;;7.90;2.28;;;;;;;24.42;31.42;101055.88;4990630;28;20062;-68
2022/08/03 07:18:09;;;;;;;11.75;2.60;;;;;;;24.44;31.54;101052.91;4992640;28;20054;-68
2022/08/03 07:20:35;;;;;;;6.40;2.00;;;;;;;24.99;29.95;101052.25;4994262;28;20046;-69
2022/08/03 07:23:02;;;;;;;7.95;1.80;;;;;;;25.08;30.26;101053.50;4989768;28;20046;-69
2022/08/03 07:25:29;;;;;;;12.70;2.08;;;;;;;25.60;29.72;101058.75;4993760;28;20078;-69
2022/08/03 07:27:55;;;;;;;7.32;1.60;;;;;;;26.11;28.82;101052.28;4993428;28;20133;-70
2022/08/03 07:30:23;;;;;;;8.25;2.00;;;;;;;25.38;28.33;101055.09;4993281;28;20061;-69
2022/08/03 07:32:50;;;;;;;8.07;1.80;;;;;;;25.61;28.03;101057.66;4993720;28;20133;-69
2022/08/03 07:35:16;;;;;;;7.97;2.00;;;;;;;26.09;27.75;101058.03;4994113;28;20089;-71
2022/08/03 07:37:50;;;;;;;12.90;2.10;;;;;;;26.83;26.60;101063.03;4993310;28;20046;-68
2022/08/03 07:40:21;;;;;;;9.60;2.20;;;;;;;27.22;26.16;101060.06;4993893;28;20046;-70
2022/08/03 07:42:47;;;;;;;9.82;1.38;;;;;;;27.91;24.74;101059.16;4992411;28;20042;-68
2022/08/03 07:45:22;;;;;;;7.25;1.67;;;;;;;28.83;23.91;101053.91;4993855;28;20073;-68
2022/08/03 07:47:48;;;;;;;11.15;2.08;;;;;;;28.68;23.89;101058.31;4993606;28;20046;-68
2022/08/03 07:50:19;;;;;;;8.88;1.90;;;;;;;29.12;23.50;101046.78;4990034;28;20046;-68
2022/08/03 07:52:50;;;;;;;8.43;1.77;;;;;;;29.79;22.74;101055.78;4992171;28;20066;-68
2022/08/03 07:55:22;;;;;;;6.00;2.00;;;;;;;30.02;22.83;101053.53;4993205;28;20042;-68
2022/08/03 07:58:16;;;;;;;14.13;1.92;;;;;;;30.60;21.86;101051.00;4992884;28;20062;-68
2022/08/03 08:00:51;;;;;;;14.80;2.00;;;;;;;31.08;21.32;101054.00;4992015;28;20053;-68
2022/08/03 08:03:18;;;;;;;9.35;1.63;;;;;;;30.66;21.54;101058.19;4992709;28;20046;-68
2022/08/03 08:05:45;;;;;;;7.85;1.70;;;;;;;30.78;21.08;101044.81;4992495;28;20058;-68
2022/08/03 08:08:11;;;;;;;2.80;1.30;;;;;;;30.94;21.31;101052.97;4975259;28;20073;-68
2022/08/03 08:10:38;;;;;;;6.90;1.30;;;;;;;31.88;19.93;101055.41;4992144;28;20093;-68
2022/08/03 08:13:04;;;;;;;7.55;1.70;;;;;;;28.78;22.81;101060.28;4991870;28;20524;-68
2022/08/03 08:15:31;;;;;;;5.30;1.50;;;;;;;29.38;22.76;101055.84;4992547;28;20129;-68
2022/08/03 08:18:00;;;;;;;11.05;1.73;;;;;;;29.67;21.63;101058.06;4992184;28;20066;-68
2022/08/03 08:20:30;;;;;;;11.32;1.65;;;;;;;29.53;21.78;101056.97;4992016;28;20044;-68
2022/08/03 08:23:02;;;;;;;12.00;1.67;;;;;;;28.73;23.22;101060.25;4992734;28;20494;-68
2022/08/03 08:25:42;;;;;;;3.20;1.27;;;;;;;29.28;22.13;101044.00;4992641;28;20129;-68
2022/08/03 08:28:09;;;;;;;13.07;1.60;;;;;;;30.46;21.30;101055.50;4991651;28;20088;-68
2022/08/03 08:30:55;;;;;;;9.38;2.05;;;;;;;30.71;20.47;101055.38;4991882;28;20047;-68
2022/08/03 08:33:22;;;;;;;8.88;1.55;;;;;;;31.71;20.18;101055.88;4990959;28;20114;-68
2022/08/03 08:35:51;;;;;;;2.90;1.75;;;;;;;31.62;19.70;101052.94;4991576;28;20109;-68
2022/08/03 08:38:18;;;;;;;18.98;1.88;;;;;;;32.69;18.32;101052.69;4992226;28;20073;-68
2022/08/03 08:40:45;;;;;;;6.93;1.50;;;;;;;31.87;19.50;101043.50;4991651;28;20125;-68
2022/08/03 08:43:11;;;;;;;6.95;1.58;;;;;;;32.32;19.22;101048.75;4991476;28;20129;-68
2022/08/03 08:45:39;;;;;;;8.55;1.85;;;;;;;32.16;19.17;101050.91;4989888;28;20074;-68
2022/08/03 08:48:08;;;;;;;11.60;2.35;;;;;;;32.06;19.56;101045.50;4991709;28;20129;-68
2022/08/03 08:50:37;;;;;;;6.13;2.30;;;;;;;33.05;18.31;101042.66;4993926;28;20458;-68
2022/08/03 08:53:06;;;;;;;4.85;1.58;;;;;;;33.30;18.34;101049.72;4993125;28;20479;-68
2022/08/03 08:55:37;;;;;;;6.90;1.70;;;;;;;32.61;18.75;101049.47;4990962;28;20050;-68
2022/08/03 08:58:27;;;;;;;4.40;1.50;;;;;;;32.14;19.00;101048.44;4993644;28;20052;-68
2022/08/03 09:00:53;;;;;;;6.00;1.50;;;;;;;32.93;18.15;101042.28;4992160;28;20050;-68
2022/08/03 09:03:20;;;;;;;5.50;1.42;;;;;;;32.72;18.48;101046.50;4993565;28;20046;-68
2022/08/03 09:05:58;;;;;;;10.60;1.70;;;;;;;33.32;18.13;101032.75;4993625;28;20046;-68
2022/08/03 09:08:25;;;;;;;8.40;1.48;;;;;;;34.16;17.43;101040.81;4974121;28;20097;-67
2022/08/03 09:10:51;;;;;;;7.93;2.35;;;;;;;33.83;17.85;101031.75;4965205;28;20073;-68
2022/08/03 09:13:18;;;;;;;10.20;2.20;;;;;;;34.59;16.95;101029.28;4992857;28;20042;-68
2022/08/03 09:15:45;;;;;;;6.50;1.80;;;;;;;34.32;16.99;101037.69;4990363;28;20105;-68
2022/08/03 09:18:30;;;;;;;3.83;1.63;;;;;;;34.77;16.72;101024.66;4992759;28;20406;-68
2022/08/03 09:21:13;;;;;;;7.82;2.42;;;;;;;34.04;17.09;101027.44;4992287;28;20046;-68
2022/08/03 09:23:58;;;;;;;10.40;2.33;;;;;;;33.13;18.08;101028.06;4991719;28;20047;-68
2022/08/03 09:26:32;;;;;;;6.63;1.30;;;;;;;33.98;17.28;101022.28;4980514;28;20057;-68
2022/08/03 09:29:04;;;;;;;8.20;1.55;;;;;;;32.96;17.88;101025.06;4992146;28;20121;-68
2022/08/03 09:31:41;;;;;;;10.50;2.10;;;;;;;33.64;17.70;101022.69;4992817;28;20057;-68
2022/08/03 09:34:12;;;;;;;12.13;1.65;;;;;;;33.61;17.63;101021.34;4973150;28;20133;-68
2022/08/03 09:36:46;;;;;;;7.20;1.65;;;;;;;32.52;18.85;101026.28;4972263;28;20137;-67
2022/08/03 09:39:19;;;;;;;5.68;1.27;;;;;;;32.51;18.52;101023.78;4970719;28;20486;-68
2022/08/03 09:42:05;;;;;;;4.38;1.30;;;;;;;34.31;17.02;101022.91;4973074;28;20046;-68
2022/08/03 09:44:36;;;;;;;6.63;1.50;;;;;;;33.96;17.28;101019.78;4970223;28;20118;-68
2022/08/03 09:47:04;;;;;;;;;;;;;;;32.49;18.72;101026.88;4971021;28;20051;-68
2022/08/03 09:49:31;;;;;;;7.45;1.73;;;;;;;32.63;18.32;101024.16;4970164;28;20325;-68
2022/08/03 09:52:12;;;;;;;6.38;1.40;;;;;;;32.32;18.90;101023.78;4970868;28;20039;-69
2022/08/03 09:55:01;;;;;;;3.75;1.35;;;;;;;33.33;18.01;101029.63;4970632;28;20049;-68
2022/08/03 09:57:31;;;;;;;6.85;1.60;;;;;;;33.38;17.86;101017.63;4969854;28;20081;-69
2022/08/03 10:00:09;;;;;;;5.07;1.50;;;;;;;34.77;16.58;101016.28;4970108;28;20160;-69
2022/08/03 10:02:37;;;;;;;2.83;1.30;;;;;;;35.05;16.34;101008.63;4971086;28;20130;-69
2022/08/03 10:05:05;;;;;;;9.43;2.15;;;;;;;33.86;17.32;101008.84;4970375;28;20506;-69
2022/08/03 10:07:45;;;;;;;6.63;1.45;;;;;;;33.53;17.55;101006.19;4966033;28;20047;-68
2022/08/03 10:10:13;;;;;;;4.72;1.30;;;;;;;33.80;17.60;101007.34;4954092;28;20063;-69
2022/08/03 10:12:58;;;;;;;8.52;1.75;;;;;;;34.59;16.41;101008.91;4970781;28;20085;-69
2022/08/03 10:15:25;;;;;;;4.95;1.63;;;;;;;35.03;16.12;101004.50;4970608;28;20042;-68
2022/08/03 10:18:12;;;;;;;6.70;1.70;;;;;;;34.63;16.33;100998.81;4970105;28;20057;-69
2022/08/03 10:20:44;;;;;;;8.65;1.70;;;;;;;35.02;16.11;100994.50;4969668;28;20066;-69
2022/08/03 10:23:13;;;;;;;3.47;1.17;;;;;;;35.00;15.99;100992.84;4969990;28;20047;-69
2022/08/03 10:25:40;;;;;;;3.72;1.20;;;;;;;35.39;15.67;100988.47;4970896;28;20138;-69
2022/08/03 10:28:09;;;;;;;7.82;1.30;;;;;;;36.38;15.28;100988.84;4971248;28;20058;-69
2022/08/03 10:30:39;;;;;;;4.47;1.35;;;;;;;35.54;15.80;100983.59;4970177;28;20070;-69
2022/08/03 10:33:15;;;;;;;5.00;1.33;;;;;;;35.85;15.49;100984.34;4981924;28;20129;-68
2022/08/03 10:36:06;;;;;;;9.00;1.25;;;;;;;35.30;16.25;100976.44;4985924;28;20048;-68
2022/08/03 10:38:42;;;;;;;9.73;2.05;;;;;;;34.08;17.39;100982.25;4990043;28;20070;-68
2022/08/03 10:41:09;;;;;;;5.53;1.58;;;;;;;34.10;17.10;100974.41;4989159;28;20155;-68
2022/08/03 10:43:43;;;;;;;6.10;1.83;;;;;;;34.14;17.20;100986.56;4990595;28;20057;-68
2022/08/03 10:46:09;;;;;;;2.90;1.05;;;;;;;33.13;17.90;100978.03;4989409;28;20475;-68
2022/08/03 10:48:37;;;;;;;3.70;1.02;;;;;;;33.69;17.59;100980.84;4990609;28;20482;-68
2022/08/03 10:51:03;;;;;;;2.17;0.93;;;;;;;34.10;17.23;100975.22;4993483;28;20078;-69
2022/08/03 10:53:44;;;;;;;7.07;1.90;;;;;;;34.97;16.39;100979.56;4995211;28;20154;-69
2022/08/03 10:59:45;;;;;;;4.55;1.10;;;;;;;34.50;16.79;100973.47;4993859;28;20117;-68
2022/08/03 11:02:15;;;;;;;4.15;2.13;;;;;;;34.40;16.84;100973.72;4994878;28;20375;-69
2022/08/03 11:04:44;;;;;;;3.42;1.60;;;;;;;33.98;17.13;100964.66;4994522;28;20544;-69
2022/08/03 11:07:16;;;;;;;4.90;1.45;;;;;;;34.26;17.40;100964.56;4993587;28;20074;-69
2022/08/03 11:09:48;;;;;;;3.03;1.10;;;;;;;34.60;17.00;100954.88;4993061;28;20046;-69
2022/08/03 11:12:25;;;;;;;4.30;1.65;;;;;;;33.86;17.76;100958.75;4994227;28;20102;-70
2022/08/03 11:15:01;;;;;;;8.43;1.10;;;;;;;33.77;17.72;100960.66;4994154;28;20078;-68
2022/08/03 11:17:28;;;;;;;6.55;1.58;;;;;;;33.46;17.78;100960.47;4992823;28;20109;-69
2022/08/03 11:19:54;;;;;;;3.67;1.00;;;;;;;33.44;17.92;100959.94;4995009;28;20046;-68
2022/08/03 11:22:24;;;;;;;4.93;1.20;;;;;;;33.91;17.42;100955.91;4992784;28;20149;-68
2022/08/03 11:24:52;;;;;;;3.83;1.17;;;;;;;33.66;17.63;100950.88;4993545;28;20105;-68
2022/08/03 11:27:21;;;;;;;6.53;1.23;;;;;;;34.25;17.34;100957.34;4993387;28;20081;-68
2022/08/03 11:29:55;;;;;;;10.52;1.42;;;;;;;34.42;17.06;100951.13;4993167;28;20064;-68
2022/08/03 11:32:42;;;;;;;7.20;1.38;;;;;;;34.39;17.21;100954.56;4993683;28;20066;-68
2022/08/03 11:35:21;;;;;;;4.22;1.38;;;;;;;34.15;17.67;100952.03;4992289;28;20375;-68
2022/08/03 11:37:56;;;;;;;6.43;1.10;;;;;;;33.21;17.84;100954.25;4993989;28;20157;-69
2022/08/03 11:40:52;;;;;;;2.17;1.33;;;;;;;33.97;17.41;100953.84;4994407;28;20057;-69
2022/08/03 11:43:33;;;;;;;4.97;1.40;;;;;;;34.89;16.89;100955.22;4993143;28;20134;-69
2022/08/03 11:46:01;;;;;;;6.18;1.35;;;;;;;34.25;16.81;100957.34;4993355;28;20060;-69
2022/08/03 11:48:34;;;;;;;3.60;1.20;;;;;;;33.62;17.69;100952.63;4984979;28;20050;-69
2022/08/03 11:51:02;;;;;;;3.33;1.25;;;;;;;34.73;16.75;100954.78;4993175;28;20076;-69
2022/08/03 11:53:29;;;;;;;4.05;1.15;;;;;;;34.16;17.15;100957.28;4993486;28;20074;-69
2022/08/03 11:56:01;;;;;;;5.93;1.23;;;;;;;34.13;17.34;100951.50;4992939;28;20133;-69
2022/08/03 11:58:30;;;;;;;5.85;1.30;;;;;;;33.73;17.83;100942.94;4992519;28;20047;-68